Time;durP1;ratioP1;P1;durP2;ratioP2;P2;SDS_P1;SDS_P2;PMS_P1;PMS_P2;Temp;Humidity;BMP_temperature;BMP_pressure;BME280_temperature;BME280_humidity;BME280_pressure;Samples;Min_cycle;Max_cycle;Signal;HPM_P1;HPM_P2
2022/05/13 00:01:46;;;;;;;6.90;2.60;;;;;;;9.49;100.00;100089.13;7399885;19;20392;-57
2022/05/13 00:04:18;;;;;;;6.53;2.50;;;;;;;9.49;100.00;100089.13;7368699;19;20947;-52
2022/05/13 00:06:48;;;;;;;9.60;2.30;;;;;;;9.45;100.00;100090.72;7396256;19;20780;-56
2022/05/13 00:09:18;;;;;;;7.53;2.97;;;;;;;9.41;100.00;100085.44;7394004;19;20486;-58
2022/05/13 00:11:47;;;;;;;9.27;2.73;;;;;;;9.39;100.00;100081.94;7399828;19;20384;-59
2022/05/13 00:14:17;;;;;;;8.40;2.67;;;;;;;9.41;100.00;100075.13;7390831;19;20487;-57
2022/05/13 00:16:46;;;;;;;8.40;2.73;;;;;;;9.34;100.00;100074.06;7397827;19;20434;-59
2022/05/13 00:19:18;;;;;;;10.40;3.20;;;;;;;9.34;100.00;100081.78;7395424;19;20791;-58
2022/05/13 00:21:48;;;;;;;10.83;2.67;;;;;;;9.32;100.00;100073.09;7399522;19;20403;-57
2022/05/13 00:24:17;;;;;;;7.27;2.60;;;;;;;9.27;100.00;100066.91;7391909;19;20427;-55
2022/05/13 00:26:47;;;;;;;7.27;2.50;;;;;;;9.22;100.00;100065.88;7395249;19;20434;-59
2022/05/13 00:29:16;;;;;;;6.57;2.40;;;;;;;9.18;100.00;100064.91;7361849;19;20764;-57
2022/05/13 00:31:46;;;;;;;9.00;3.20;;;;;;;9.12;100.00;100067.25;7400695;19;20964;-54
2022/05/13 00:34:18;;;;;;;11.50;3.10;;;;;;;9.09;100.00;100061.97;7371592;19;20430;-58
2022/05/13 00:36:49;;;;;;;18.37;3.23;;;;;;;9.04;100.00;100060.09;7398295;19;20459;-55
2022/05/13 00:39:19;;;;;;;8.30;2.90;;;;;;;9.03;100.00;100054.91;7363638;19;20407;-58
2022/05/13 00:41:49;;;;;;;9.13;2.93;;;;;;;9.07;100.00;100053.31;7398451;19;20395;-57
2022/05/13 00:44:18;;;;;;;7.73;2.83;;;;;;;9.12;100.00;100051.81;7390355;19;20788;-58
2022/05/13 00:46:48;;;;;;;8.87;5.23;;;;;;;9.17;100.00;100053.72;7394972;19;20433;-58
2022/05/13 00:49:21;;;;;;;44.07;21.77;;;;;;;9.21;100.00;100041.81;7357987;19;20419;-56
2022/05/13 00:51:51;;;;;;;14.47;5.47;;;;;;;9.12;100.00;100044.09;7397916;19;20938;-57
2022/05/13 00:54:20;;;;;;;8.00;3.30;;;;;;;9.08;100.00;100037.06;7360085;19;20403;-58
2022/05/13 00:56:51;;;;;;;6.33;2.93;;;;;;;9.01;100.00;100034.28;7395521;19;20953;-58
2022/05/13 00:59:22;;;;;;;13.00;3.33;;;;;;;9.02;100.00;100025.72;7360489;19;21002;-56
2022/05/13 01:01:52;;;;;;;9.57;2.70;;;;;;;9.00;100.00;100024.81;7397600;19;20387;-55
2022/05/13 01:04:25;;;;;;;14.97;2.67;;;;;;;8.99;100.00;100023.06;7355541;19;20762;-57
2022/05/13 01:06:57;;;;;;;6.67;2.80;;;;;;;8.95;100.00;100013.47;7394520;19;20423;-58
2022/05/13 01:09:29;;;;;;;12.33;4.77;;;;;;;8.96;100.00;100010.06;7346083;19;20415;-57
2022/05/13 01:12:00;;;;;;;10.50;2.93;;;;;;;8.93;100.00;100004.81;7397302;19;20427;-57
2022/05/13 01:14:32;;;;;;;11.07;3.20;;;;;;;8.90;100.00;100004.69;7354929;19;20411;-57
2022/05/13 01:20:06;;;;;;;11.00;3.37;;;;;;;8.87;100.00;99999.44;7395853;19;20418;-53
2022/05/13 01:22:45;;;;;;;5.87;3.03;;;;;;;8.84;100.00;99989.91;7389407;19;20918;-56
2022/05/13 01:25:17;;;;;;;9.43;2.73;;;;;;;8.86;100.00;99992.53;7394936;19;20834;-56
2022/05/13 01:27:48;;;;;;;11.83;3.47;;;;;;;8.81;100.00;99994.09;7358995;19;20402;-55
2022/05/13 01:30:24;;;;;;;7.00;3.40;;;;;;;8.78;100.00;99985.41;7395507;19;20786;-59
2022/05/13 01:32:53;;;;;;;8.53;3.47;;;;;;;8.77;100.00;99987.94;7360332;19;20400;-58
2022/05/13 01:35:23;;;;;;;9.53;4.40;;;;;;;8.79;100.00;99981.16;7392791;19;20426;-55
2022/05/13 01:37:56;;;;;;;5.80;3.33;;;;;;;8.74;100.00;99986.13;7360366;19;20368;-54
2022/05/13 01:40:25;;;;;;;8.90;3.30;;;;;;;8.69;100.00;99969.66;7395400;19;20906;-55
2022/05/13 01:42:55;;;;;;;11.53;3.50;;;;;;;8.69;100.00;99967.09;7370003;19;20387;-57
2022/05/13 01:45:24;;;;;;;12.33;3.47;;;;;;;8.70;100.00;99966.25;7393622;19;20427;-58
2022/05/13 01:47:54;;;;;;;10.90;3.33;;;;;;;8.64;100.00;99960.88;7348170;19;20393;-58
2022/05/13 01:50:24;;;;;;;11.70;3.70;;;;;;;8.59;100.00;99954.69;7395281;19;20914;-57
2022/05/13 01:52:57;;;;;;;11.70;3.60;;;;;;;8.59;100.00;99946.97;7390099;19;20411;-54
2022/05/13 01:55:26;;;;;;;16.77;6.30;;;;;;;8.59;100.00;99944.41;7393640;19;20959;-56
2022/05/13 01:57:56;;;;;;;12.93;3.17;;;;;;;8.57;100.00;99943.47;7359386;19;20386;-56
2022/05/13 02:00:26;;;;;;;7.20;3.57;;;;;;;8.56;100.00;99946.88;7394818;19;20392;-56
2022/05/13 02:05:37;;;;;;;10.00;3.70;;;;;;;8.51;100.00;99939.88;7393793;19;20415;-56
2022/05/13 02:08:10;;;;;;;8.30;3.70;;;;;;;8.48;100.00;99939.72;7364356;19;20395;-55
2022/05/13 02:10:39;;;;;;;8.67;3.70;;;;;;;8.48;100.00;99924.31;7394659;19;20391;-59
2022/05/13 02:13:09;;;;;;;9.37;3.80;;;;;;;8.47;100.00;99925.09;7350606;19;20494;-56
2022/05/13 02:15:38;;;;;;;11.53;3.80;;;;;;;8.44;100.00;99927.56;7391643;19;20415;-57
2022/05/13 02:18:08;;;;;;;10.60;4.10;;;;;;;8.43;100.00;99912.09;7360046;19;20429;-58
2022/05/13 02:20:38;;;;;;;14.00;4.30;;;;;;;8.46;100.00;99905.34;7394189;19;20390;-53
2022/05/13 02:23:11;;;;;;;9.90;3.90;;;;;;;8.46;100.00;99889.94;7368083;19;20402;-55
2022/05/13 02:25:42;;;;;;;11.70;3.80;;;;;;;8.43;100.00;99878.66;7396792;19;20420;-57
2022/05/13 02:28:12;;;;;;;10.67;4.10;;;;;;;8.46;100.00;99873.66;7357117;19;20387;-56
2022/05/13 02:30:41;;;;;;;8.10;3.33;;;;;;;8.45;100.00;99857.34;7394097;19;20378;-56
2022/05/13 02:33:11;;;;;;;10.90;3.90;;;;;;;8.40;100.00;99853.72;7355526;19;20383;-58
2022/05/13 02:35:40;;;;;;;11.40;3.90;;;;;;;8.33;100.00;99852.63;7393351;19;20958;-56
2022/05/13 02:38:15;;;;;;;10.33;4.50;;;;;;;8.36;100.00;99847.59;7360174;19;20466;-58
2022/05/13 02:43:27;;;;;;;10.27;4.03;;;;;;;8.34;100.00;99831.25;7353802;19;20418;-54
2022/05/13 02:45:56;;;;;;;17.30;4.50;;;;;;;8.37;100.00;99827.91;7392169;19;20422;-57
2022/05/13 02:48:26;;;;;;;9.40;3.53;;;;;;;8.33;100.00;99820.91;7375906;19;20418;-58
2022/05/13 02:50:56;;;;;;;10.10;4.00;;;;;;;8.27;100.00;99821.56;7397189;19;20402;-57
2022/05/13 02:53:28;;;;;;;13.90;4.20;;;;;;;8.27;100.00;99812.97;7360038;19;20515;-56
2022/05/13 02:55:57;;;;;;;9.57;4.60;;;;;;;8.26;100.00;99812.13;7391583;19;20439;-55
2022/05/13 02:58:27;;;;;;;10.70;4.30;;;;;;;8.29;100.00;99807.06;7389169;19;20415;-54
2022/05/13 03:00:56;;;;;;;12.33;4.70;;;;;;;8.34;100.00;99794.38;7394306;19;20808;-55
2022/05/13 03:03:26;;;;;;;8.63;4.03;;;;;;;8.34;100.00;99791.81;7357623;19;20391;-58
2022/05/13 03:05:55;;;;;;;12.50;4.63;;;;;;;8.35;100.00;99784.16;7391122;19;20407;-54
2022/05/13 03:08:28;;;;;;;9.17;4.40;;;;;;;8.35;100.00;99779.03;7363150;19;20423;-56
2022/05/13 03:10:57;;;;;;;15.77;4.53;;;;;;;8.40;100.00;99779.19;7393389;19;20384;-56
2022/05/13 03:13:27;;;;;;;11.67;4.13;;;;;;;8.46;100.00;99770.81;7385195;19;20411;-55
2022/05/13 03:15:56;;;;;;;11.53;4.50;;;;;;;8.49;100.00;99769.22;7391842;19;20437;-57
2022/05/13 03:18:26;;;;;;;16.43;4.47;;;;;;;8.54;100.00;99763.38;7361427;19;20395;-57
2022/05/13 03:20:56;;;;;;;12.83;4.70;;;;;;;8.55;100.00;99768.59;7392938;19;20392;-54
2022/05/13 03:23:28;;;;;;;8.37;4.40;;;;;;;8.60;100.00;99768.72;7385100;19;20482;-57
2022/05/13 03:25:58;;;;;;;13.80;4.07;;;;;;;8.64;100.00;99758.63;7392213;19;20419;-53
2022/05/13 03:28:28;;;;;;;9.40;4.23;;;;;;;8.68;100.00;99756.16;7386939;19;20437;-54
2022/05/13 03:30:57;;;;;;;9.13;4.20;;;;;;;8.72;100.00;99756.28;7398058;19;20477;-55
2022/05/13 03:33:27;;;;;;;9.97;4.40;;;;;;;8.76;100.00;99749.53;7392632;19;20402;-55
2022/05/13 03:35:56;;;;;;;11.87;4.50;;;;;;;8.80;100.00;99750.53;7398356;19;20499;-56
2022/05/13 03:38:28;;;;;;;11.83;4.67;;;;;;;8.84;100.00;99742.97;7372732;19;20423;-51
2022/05/13 03:40:58;;;;;;;11.17;5.53;;;;;;;8.86;100.00;99755.88;7400630;19;20384;-55
2022/05/13 03:43:28;;;;;;;14.30;5.23;;;;;;;8.93;100.00;99751.81;7393096;19;21003;-57
2022/05/13 03:45:57;;;;;;;12.30;4.30;;;;;;;8.95;100.00;99750.16;7397298;19;20429;-55
2022/05/13 03:48:27;;;;;;;17.00;4.97;;;;;;;8.98;100.00;99756.25;7364230;19;20436;-54
2022/05/13 03:50:56;;;;;;;11.83;4.27;;;;;;;9.03;100.00;99759.00;7399303;19;20969;-56
2022/05/13 03:53:28;;;;;;;12.47;4.37;;;;;;;9.07;100.00;99765.13;7366675;19;20405;-57
2022/05/13 03:55:58;;;;;;;8.63;4.43;;;;;;;9.09;100.00;99763.47;7397300;19;20424;-58
2022/05/13 03:58:28;;;;;;;11.20;4.80;;;;;;;9.12;100.00;99763.56;7391224;19;20415;-57
2022/05/13 04:00:57;;;;;;;11.00;4.50;;;;;;;9.16;100.00;99770.53;7400274;19;20387;-58
2022/05/13 04:03:27;;;;;;;8.47;4.53;;;;;;;9.19;100.00;99780.97;7391540;19;20410;-54
2022/05/13 04:11:23;;;;;;;9.60;4.50;;;;;;;9.24;100.00;99783.66;7399884;19;20384;-54
2022/05/13 04:16:35;;;;;;;12.83;4.70;;;;;;;9.27;100.00;99792.34;7396764;19;20430;-55
2022/05/13 04:19:06;;;;;;;11.00;4.70;;;;;;;9.31;100.00;99794.22;7366127;19;20406;-56
2022/05/13 04:21:37;;;;;;;13.40;4.43;;;;;;;9.35;100.00;99792.59;7398610;19;20380;-57
2022/05/13 04:24:12;;;;;;;9.20;5.10;;;;;;;9.37;100.00;99802.94;7367728;19;20415;-56
2022/05/13 04:26:42;;;;;;;15.37;4.70;;;;;;;9.40;100.00;99810.75;7400732;19;20520;-55
2022/05/13 04:29:11;;;;;;;5.80;4.37;;;;;;;9.40;100.00;99816.81;7363585;19;20410;-56
2022/05/13 04:31:43;;;;;;;9.03;4.53;;;;;;;9.41;100.00;99822.81;7398489;19;20371;-55
2022/05/13 04:34:14;;;;;;;12.57;4.87;;;;;;;9.42;100.00;99829.69;7378719;19;20412;-53
2022/05/13 04:36:43;;;;;;;16.87;5.03;;;;;;;9.48;100.00;99840.19;7396359;19;20429;-55
2022/05/13 04:39:15;;;;;;;14.37;4.10;;;;;;;9.52;100.00;99848.88;7366210;19;20401;-57
2022/05/13 04:44:27;;;;;;;9.90;4.43;;;;;;;9.56;100.00;99861.03;7365610;19;20454;-56
2022/05/13 04:46:56;;;;;;;10.20;4.73;;;;;;;9.57;100.00;99868.81;7401301;19;20475;-53
2022/05/13 04:49:26;;;;;;;13.23;4.70;;;;;;;9.57;100.00;99865.38;7353077;19;20924;-55
2022/05/13 04:51:56;;;;;;;5.83;3.70;;;;;;;9.62;100.00;99880.94;7397928;19;20399;-57
2022/05/13 04:54:28;;;;;;;9.70;4.10;;;;;;;9.64;100.00;99887.03;7369186;19;20391;-55
2022/05/13 04:56:58;;;;;;;11.10;4.87;;;;;;;9.66;100.00;99896.56;7396384;19;20388;-55
2022/05/13 04:59:27;;;;;;;14.17;4.57;;;;;;;9.67;100.00;99906.03;7361797;19;20426;-57
2022/05/13 05:01:57;;;;;;;11.77;4.90;;;;;;;9.69;100.00;99921.56;7398327;19;20913;-55
2022/05/13 05:04:26;;;;;;;10.70;4.47;;;;;;;9.71;100.00;99919.91;7372564;19;20413;-57
2022/05/13 05:06:56;;;;;;;11.47;4.50;;;;;;;9.72;100.00;99926.78;7395220;19;20989;-54
2022/05/13 05:09:28;;;;;;;11.47;4.40;;;;;;;9.77;100.00;99932.97;7361026;19;20395;-58
2022/05/13 05:11:57;;;;;;;8.20;4.73;;;;;;;9.76;100.00;99938.97;7397757;19;20380;-54
2022/05/13 05:14:27;;;;;;;9.67;3.90;;;;;;;9.77;100.00;99943.28;7361060;19;20405;-56
2022/05/13 05:16:56;;;;;;;7.97;4.07;;;;;;;9.76;100.00;99951.84;7394742;19;20431;-58
2022/05/13 05:19:26;;;;;;;7.93;3.87;;;;;;;9.77;100.00;99957.84;7361149;19;20765;-55
2022/05/13 05:21:55;;;;;;;11.87;4.43;;;;;;;9.79;100.00;99962.22;7397370;19;20463;-55
2022/05/13 05:24:28;;;;;;;9.63;4.07;;;;;;;9.83;100.00;99963.19;7361774;19;20433;-53
2022/05/13 05:26:57;;;;;;;18.90;5.60;;;;;;;9.85;100.00;99977.03;7397977;19;20359;-54
2022/05/13 05:29:27;;;;;;;7.83;3.60;;;;;;;9.86;100.00;99977.03;7365250;19;20406;-54
2022/05/13 05:31:56;;;;;;;8.50;3.90;;;;;;;9.88;100.00;99981.41;7396961;19;20463;-56
2022/05/13 05:34:26;;;;;;;10.13;4.43;;;;;;;9.88;100.00;99978.81;7388726;19;20822;-57
2022/05/13 05:36:55;;;;;;;8.00;4.00;;;;;;;9.91;100.00;99981.50;7394698;19;20982;-56
2022/05/13 05:39:28;;;;;;;11.50;3.83;;;;;;;9.91;100.00;99984.94;7364179;19;20430;-58
2022/05/13 05:41:57;;;;;;;5.67;3.07;;;;;;;9.93;100.00;99985.88;7396403;19;20460;-56
2022/05/13 05:44:27;;;;;;;10.80;4.23;;;;;;;9.96;100.00;99992.81;7366622;19;20399;-57
2022/05/13 05:46:56;;;;;;;11.40;3.63;;;;;;;9.94;100.00;99989.34;7394334;19;20416;-56
2022/05/13 05:49:26;;;;;;;11.90;3.43;;;;;;;9.98;100.00;99992.06;7351188;19;20399;-57
2022/05/13 05:51:56;;;;;;;8.33;3.93;;;;;;;10.01;100.00;99991.28;7395656;19;20731;-55
2022/05/13 05:57:19;;;;;;;7.27;3.63;;;;;;;10.05;100.00;100008.56;7394936;19;20383;-54
2022/05/13 05:59:49;;;;;;;9.00;3.53;;;;;;;10.07;100.00;100012.09;7367777;19;20402;-58
2022/05/13 06:02:19;;;;;;;7.77;3.70;;;;;;;10.11;100.00;100007.91;7398503;19;20402;-56
2022/05/13 06:04:48;;;;;;;8.53;3.73;;;;;;;10.11;100.00;100011.34;7363954;19;20397;-55
2022/05/13 06:07:19;;;;;;;10.93;4.27;;;;;;;10.15;100.00;100004.56;7395456;19;20388;-57
2022/05/13 06:09:54;;;;;;;10.10;4.37;;;;;;;10.17;100.00;100005.53;7388858;19;20434;-58
2022/05/13 06:12:23;;;;;;;12.43;4.97;;;;;;;10.16;100.00;100010.63;7395659;19;20390;-59
2022/05/13 06:14:53;;;;;;;9.03;4.20;;;;;;;10.16;100.00;100016.66;7355388;19;20441;-58
2022/05/13 06:17:22;;;;;;;8.00;3.63;;;;;;;10.19;100.00;100009.00;7394104;19;20458;-55
2022/05/13 06:19:52;;;;;;;8.00;4.20;;;;;;;10.18;100.00;99998.63;7359046;19;20430;-59
2022/05/13 06:22:21;;;;;;;11.07;5.37;;;;;;;10.24;100.00;99998.84;7394660;19;20378;-55
2022/05/13 06:24:54;;;;;;;6.20;3.20;;;;;;;10.29;100.00;99997.28;7364791;19;20429;-59
2022/05/13 06:27:23;;;;;;;11.10;4.77;;;;;;;10.33;100.00;100006.88;7397074;19;20384;-58
2022/05/13 06:29:54;;;;;;;14.10;3.97;;;;;;;10.29;100.00;99999.00;7370968;19;20401;-57
2022/05/13 06:32:23;;;;;;;9.83;3.67;;;;;;;10.28;100.00;100005.84;7395066;19;20382;-60
2022/05/13 06:34:53;;;;;;;9.33;3.97;;;;;;;10.30;100.00;100008.47;7369593;19;20510;-58
2022/05/13 06:37:22;;;;;;;10.03;3.10;;;;;;;10.26;100.00;100012.66;7393804;19;20368;-52
2022/05/13 06:39:54;;;;;;;15.10;4.10;;;;;;;10.30;100.00;100011.91;7388015;19;20439;-53
2022/05/13 06:42:24;;;;;;;8.33;4.03;;;;;;;10.26;100.00;100017.81;7394481;19;20391;-57
2022/05/13 06:44:53;;;;;;;9.17;3.63;;;;;;;10.24;100.00;100009.16;7384414;19;20426;-57
2022/05/13 06:47:23;;;;;;;8.20;4.07;;;;;;;10.26;100.00;100021.25;7397300;19;20412;-56
2022/05/13 06:49:52;;;;;;;11.43;4.97;;;;;;;10.30;100.00;100022.22;7367995;19;20404;-56
2022/05/13 06:52:22;;;;;;;15.70;5.67;;;;;;;10.37;100.00;100037.06;7394228;19;20383;-58
2022/05/13 06:55:13;;;;;;;10.47;4.53;;;;;;;10.37;100.00;100031.03;7392377;19;20780;-59
2022/05/13 06:57:43;;;;;;;15.30;6.40;;;;;;;10.40;100.00;100034.59;7389475;19;20747;-58
2022/05/13 07:00:14;;;;;;;14.20;5.70;;;;;;;10.35;100.00;100020.66;7396009;19;20372;-57
2022/05/13 07:02:46;;;;;;;13.27;4.63;;;;;;;10.32;100.00;100030.91;7359738;19;20401;-55
2022/05/13 07:05:20;;;;;;;49.57;15.73;;;;;;;10.40;100.00;100011.38;7390059;19;20437;-58
2022/05/13 07:07:50;;;;;;;10.80;5.17;;;;;;;10.34;100.00;100021.50;7387551;19;20756;-59
2022/05/13 07:10:22;;;;;;;10.30;4.53;;;;;;;10.38;100.00;100013.03;7393864;19;20414;-59
2022/05/13 07:12:52;;;;;;;17.57;5.43;;;;;;;10.38;100.00;100001.84;7383952;19;21021;-59
2022/05/13 07:15:22;;;;;;;11.10;4.93;;;;;;;10.36;100.00;100024.13;7393043;19;20434;-53
2022/05/13 07:17:52;;;;;;;13.50;4.57;;;;;;;10.35;100.00;100025.81;7355293;19;21009;-58
2022/05/13 07:20:22;;;;;;;11.00;5.03;;;;;;;10.36;100.00;100031.88;7391983;19;20394;-58
2022/05/13 07:22:52;;;;;;;10.47;4.40;;;;;;;10.35;100.00;100036.13;7385976;19;21285;-57
2022/05/13 07:25:25;;;;;;;9.43;3.83;;;;;;;10.37;100.00;100047.38;7391411;19;20422;-57
2022/05/13 07:27:54;;;;;;;8.53;3.60;;;;;;;10.43;100.00;100049.31;7385786;19;20403;-58
2022/05/13 07:30:24;;;;;;;16.10;7.30;;;;;;;10.48;100.00;100047.75;7393028;19;20391;-57
2022/05/13 07:32:53;;;;;;;16.43;6.43;;;;;;;10.57;100.00;100044.59;7387161;19;20437;-57
2022/05/13 07:35:23;;;;;;;17.07;7.80;;;;;;;10.65;100.00;100048.28;7391347;19;20467;-58
2022/05/13 07:37:52;;;;;;;19.20;8.10;;;;;;;10.74;100.00;100051.94;7378492;19;20373;-57
2022/05/13 07:43:07;;;;;;;12.20;6.30;;;;;;;10.89;100.00;100052.41;7387288;19;20403;-58
2022/05/13 07:45:38;;;;;;;14.90;8.20;;;;;;;10.94;100.00;100055.97;7392552;19;20474;-55
2022/05/13 07:48:09;;;;;;;15.20;5.33;;;;;;;11.05;100.00;100060.59;7379093;19;20763;-57
2022/05/13 07:50:38;;;;;;;12.43;4.60;;;;;;;11.26;100.00;100067.19;7393296;19;20414;-58
2022/05/13 07:53:08;;;;;;;24.53;7.90;;;;;;;11.42;100.00;100059.03;7384472;19;20421;-58
2022/05/13 07:55:40;;;;;;;11.23;4.63;;;;;;;11.26;100.00;100072.34;7390487;19;20974;-58
2022/05/13 07:58:09;;;;;;;16.57;6.13;;;;;;;11.27;100.00;100074.13;7382760;19;20413;-57
2022/05/13 08:00:39;;;;;;;15.27;5.60;;;;;;;11.19;100.00;100079.91;7391750;19;20389;-55
2022/05/13 08:03:11;;;;;;;21.30;5.23;;;;;;;11.24;100.00;100068.84;7383822;19;20953;-57
2022/05/13 08:05:43;;;;;;;33.70;10.97;;;;;;;11.28;100.00;100061.22;7390176;19;20480;-56
2022/05/13 08:08:16;;;;;;;19.73;6.47;;;;;;;11.26;100.00;100072.34;7386461;19;20723;-54
2022/05/13 08:10:50;;;;;;;19.40;5.80;;;;;;;11.18;100.00;100074.72;7391229;19;20914;-55
2022/05/13 08:13:20;;;;;;;37.43;16.60;;;;;;;11.33;100.00;100076.84;7385127;19;20406;-58
2022/05/13 08:15:49;;;;;;;46.20;15.20;;;;;;;11.42;100.00;100079.69;7390358;19;20408;-57
2022/05/13 08:18:21;;;;;;;69.53;22.03;;;;;;;11.40;100.00;100080.47;7388687;19;20429;-59
2022/05/13 08:20:51;;;;;;;15.97;5.20;;;;;;;11.27;100.00;100089.63;7398795;19;20906;-59
2022/05/13 08:23:21;;;;;;;12.30;5.70;;;;;;;11.33;100.00;100085.47;7366589;19;20800;-57
2022/05/13 08:25:53;;;;;;;15.57;5.87;;;;;;;11.38;100.00;100088.19;7395637;19;20431;-58
2022/05/13 08:28:25;;;;;;;53.90;17.73;;;;;;;11.43;100.00;100099.53;7353132;19;20788;-59
2022/05/13 08:30:55;;;;;;;25.23;7.30;;;;;;;11.38;100.00;100097.66;7397823;19;20389;-57
2022/05/13 08:33:25;;;;;;;24.50;8.10;;;;;;;11.36;100.00;100107.94;7370583;19;20484;-59
2022/05/13 08:35:59;;;;;;;20.00;7.80;;;;;;;11.34;100.00;100096.69;7396530;19;20508;-56
2022/05/13 08:38:30;;;;;;;30.43;11.07;;;;;;;11.39;100.00;100100.25;7369351;19;20392;-56
2022/05/13 08:41:24;;;;;;;25.33;9.90;;;;;;;11.44;100.00;100108.16;7397509;19;20745;-58
2022/05/13 08:43:56;;;;;;;23.40;8.43;;;;;;;11.47;100.00;100109.13;7366241;19;20389;-57
2022/05/13 08:46:35;;;;;;;15.00;5.67;;;;;;;11.67;100.00;100106.19;7395598;19;20407;-56
2022/05/13 08:49:10;;;;;;;16.47;5.30;;;;;;;11.71;100.00;100115.78;7389961;19;20428;-56
2022/05/13 08:51:52;;;;;;;19.57;5.50;;;;;;;11.97;100.00;100119.88;7401112;19;20393;-54
2022/05/13 08:54:23;;;;;;;18.60;5.17;;;;;;;11.81;100.00;100128.94;7388772;19;20770;-59
2022/05/13 08:56:59;;;;;;;10.60;4.90;;;;;;;11.94;100.00;100136.19;7398840;19;20435;-56
2022/05/13 08:59:31;;;;;;;14.90;5.60;;;;;;;12.04;100.00;100139.06;7390606;19;20518;-59
2022/05/13 09:02:07;;;;;;;10.93;5.43;;;;;;;11.98;100.00;100145.78;7397774;19;20388;-56
2022/05/13 09:04:39;;;;;;;13.67;5.73;;;;;;;12.16;100.00;100152.31;7354165;19;20450;-55
2022/05/13 09:07:12;;;;;;;19.27;6.57;;;;;;;12.23;100.00;100153.31;7398670;19;20416;-58
2022/05/13 09:09:42;;;;;;;15.77;5.67;;;;;;;12.39;100.00;100154.56;7390385;19;20452;-58
2022/05/13 09:12:18;;;;;;;15.33;4.97;;;;;;;12.49;100.00;100166.91;7397609;19;20400;-58
2022/05/13 09:14:50;;;;;;;14.10;4.20;;;;;;;12.34;100.00;100176.84;7390155;19;20433;-58
2022/05/13 09:17:35;;;;;;;6.87;4.00;;;;;;;12.31;100.00;100181.97;7398338;19;20395;-54
2022/05/13 09:20:10;;;;;;;20.77;6.67;;;;;;;12.45;100.00;100179.75;7396642;19;20424;-57
2022/05/13 09:22:43;;;;;;;19.33;6.60;;;;;;;12.54;100.00;100170.50;7390639;19;20400;-56
2022/05/13 09:25:19;;;;;;;14.90;5.60;;;;;;;12.53;100.00;100186.84;7395242;19;20748;-53
2022/05/13 09:27:53;;;;;;;19.90;5.80;;;;;;;12.67;100.00;100181.13;7389304;19;20396;-56
2022/05/13 09:30:24;;;;;;;16.17;6.10;;;;;;;12.90;100.00;100183.38;7396816;19;20388;-56
2022/05/13 09:32:54;;;;;;;15.77;6.13;;;;;;;12.85;100.00;100187.56;7390940;19;20414;-53
2022/05/13 09:35:33;;;;;;;18.47;5.33;;;;;;;12.64;100.00;100199.16;7394502;19;20416;-54
2022/05/13 09:38:15;;;;;;;27.97;5.73;;;;;;;12.73;100.00;100202.00;7389334;19;20425;-58
2022/05/13 09:40:58;;;;;;;13.73;6.40;;;;;;;12.99;100.00;100203.44;7396394;19;20387;-59
2022/05/13 09:43:39;;;;;;;16.17;5.83;;;;;;;13.04;100.00;100197.53;7389407;19;20481;-55
2022/05/13 09:46:11;;;;;;;15.60;5.40;;;;;;;13.11;100.00;100203.72;7393885;19;20443;-54
2022/05/13 09:48:42;;;;;;;16.27;7.30;;;;;;;13.02;100.00;100217.31;7387067;19;20529;-58
2022/05/13 09:51:26;;;;;;;15.33;5.47;;;;;;;13.04;100.00;100218.25;7393246;19;20396;-58
2022/05/13 09:54:05;;;;;;;14.30;5.93;;;;;;;13.01;100.00;100210.41;7385558;19;20848;-58
2022/05/13 09:56:41;;;;;;;10.97;5.20;;;;;;;12.86;100.00;100223.00;7391447;19;20432;-54
2022/05/13 09:59:20;;;;;;;18.70;8.23;;;;;;;12.85;100.00;100222.09;7363927;19;20428;-56
2022/05/13 10:01:50;;;;;;;15.37;6.13;;;;;;;12.98;100.00;100223.28;7392463;19;20917;-55
2022/05/13 10:04:24;;;;;;;18.63;7.73;;;;;;;12.87;100.00;100233.38;7384501;19;20486;-55
2022/05/13 10:07:05;;;;;;;16.70;7.10;;;;;;;12.98;100.00;100218.09;7391199;19;20495;-57
2022/05/13 10:15:12;;;;;;;11.50;4.80;;;;;;;12.89;100.00;100228.22;7389947;19;20424;-56
2022/05/13 10:17:48;;;;;;;14.30;5.93;;;;;;;13.17;100.00;100229.75;7388044;19;20441;-60
2022/05/13 10:20:26;;;;;;;18.63;6.80;;;;;;;13.37;100.00;100209.47;7391346;19;20384;-59
2022/05/13 10:23:00;;;;;;;21.13;5.60;;;;;;;13.64;100.00;100217.81;7385357;19;20407;-59
2022/05/13 10:25:33;;;;;;;16.93;5.83;;;;;;;13.68;100.00;100221.38;7391519;19;20415;-57
2022/05/13 10:28:05;;;;;;;22.23;6.57;;;;;;;13.35;100.00;100225.81;7387886;19;20436;-56
2022/05/13 10:30:42;;;;;;;17.17;5.00;;;;;;;13.06;100.00;100242.47;7392571;19;20403;-58
2022/05/13 10:33:16;;;;;;;13.03;5.53;;;;;;;12.69;100.00;100254.50;7385841;19;20410;-57
2022/05/13 10:35:51;;;;;;;15.47;6.10;;;;;;;11.92;100.00;100236.09;7391709;19;20508;-56
2022/05/13 10:38:26;;;;;;;20.80;6.43;;;;;;;11.42;100.00;100216.59;7386891;19;20408;-56
2022/05/13 10:40:57;;;;;;;13.80;7.53;;;;;;;11.03;100.00;100179.28;7397048;19;20384;-56
2022/05/13 10:43:32;;;;;;;18.37;9.77;;;;;;;11.04;100.00;100131.13;7388105;19;20433;-58
2022/05/13 10:46:21;;;;;;;16.43;8.70;;;;;;;10.76;100.00;100076.06;7392555;19;20417;-55
2022/05/13 10:48:53;;;;;;;23.63;11.17;;;;;;;10.72;100.00;100025.22;7387601;19;20494;-58
2022/05/13 10:51:26;;;;;;;20.43;8.87;;;;;;;10.90;100.00;99993.91;7394305;19;20400;-56
2022/05/13 10:54:13;;;;;;;17.23;8.50;;;;;;;11.30;100.00;99924.41;7386512;19;20828;-58
2022/05/13 10:56:46;;;;;;;21.10;10.67;;;;;;;11.40;100.00;99858.38;7397179;19;20420;-56
2022/05/13 10:59:28;;;;;;;21.40;9.27;;;;;;;11.12;100.00;99822.41;7387046;19;20441;-55
2022/05/13 11:02:10;;;;;;;19.00;7.40;;;;;;;10.76;100.00;99785.41;7393886;19;20388;-59
2022/05/13 11:04:44;;;;;;;12.30;7.87;;;;;;;10.67;100.00;99764.53;7386607;19;20420;-57
2022/05/13 11:07:20;;;;;;;15.00;8.50;;;;;;;10.62;100.00;99720.56;7393888;19;20403;-54
2022/05/13 11:09:54;;;;;;;12.97;5.33;;;;;;;10.53;100.00;99667.03;7386135;19;20515;-53
2022/05/13 11:12:36;;;;;;;17.00;6.70;;;;;;;10.50;100.00;99619.66;7393488;19;20392;-56
2022/05/13 11:15:18;;;;;;;17.70;7.67;;;;;;;10.88;100.00;99448.53;7392240;19;20428;-56
2022/05/13 11:17:56;;;;;;;14.10;6.13;;;;;;;11.23;100.00;99442.28;7387029;19;20388;-56
2022/05/13 11:20:31;;;;;;;12.40;6.83;;;;;;;11.59;100.00;99420.53;7390872;19;20725;-56
2022/05/13 11:23:09;;;;;;;16.47;6.13;;;;;;;11.44;100.00;99434.91;7385002;19;20449;-56
2022/05/13 11:25:56;;;;;;;9.90;5.60;;;;;;;11.46;100.00;99446.16;7395826;19;20419;-56
2022/05/13 11:29:01;;;;;;;12.10;6.50;;;;;;;11.51;100.00;99463.41;7364997;19;20934;-57
2022/05/13 11:32:07;;;;;;;12.37;5.67;;;;;;;11.58;100.00;99465.25;7393383;19;20479;-54
2022/05/13 11:35:21;;;;;;;13.60;6.30;;;;;;;11.68;100.00;99486.94;7386908;19;20454;-58
2022/05/13 11:37:54;;;;;;;10.20;4.90;;;;;;;11.58;100.00;99515.22;7360801;19;20414;-57
2022/05/13 11:40:28;;;;;;;32.10;10.77;;;;;;;11.91;100.00;99544.22;7391858;19;20724;-58
2022/05/13 11:43:29;;;;;;;19.40;6.33;;;;;;;11.92;100.00;99558.88;7383828;19;20413;-50
2022/05/13 11:46:25;;;;;;;8.30;4.50;;;;;;;12.19;100.00;99575.72;7391225;19;20417;-56
2022/05/13 11:48:58;;;;;;;75.10;18.23;;;;;;;12.24;100.00;99611.97;7365146;19;20402;-58
2022/05/13 11:51:34;;;;;;;20.07;7.73;;;;;;;12.12;100.00;99633.34;7395057;19;20393;-57
2022/05/13 11:54:28;;;;;;;22.23;6.40;;;;;;;11.96;100.00;99656.31;7391913;19;20428;-55
2022/05/13 11:57:27;;;;;;;37.93;11.13;;;;;;;11.80;100.00;99677.53;7400396;19;20396;-55
2022/05/13 11:59:58;;;;;;;20.07;8.27;;;;;;;11.91;100.00;99694.13;7391321;19;20435;-56
2022/05/13 12:02:51;;;;;;;32.47;9.40;;;;;;;12.11;100.00;99696.22;7399776;19;20909;-55
2022/05/13 12:05:36;;;;;;;54.27;17.20;;;;;;;12.25;100.00;99717.19;7397204;19;20453;-58
2022/05/13 12:08:19;;;;;;;12.90;6.30;;;;;;;12.76;100.00;99699.91;7388557;19;20471;-58
2022/05/13 12:10:58;;;;;;;7.60;4.80;;;;;;;12.70;100.00;99710.16;7399477;19;20378;-58
2022/05/13 12:13:37;;;;;;;16.03;5.67;;;;;;;12.45;100.00;99740.78;7392731;19;20743;-56
2022/05/13 12:16:28;;;;;;;15.83;7.10;;;;;;;12.16;100.00;99759.25;7397676;19;20427;-58